www.cux-wetter.de
Wetterdaten: Samstag, 12.04.2008
Datum Zeit Temp. A. Feuchte A. Luftdruck Regen Wind Richtung Richtung Sonnenschein Solar Taupunkt Windchill Windben
12.04.2008 00:03 4,1 C 89 % 999,5 hPa 0,0 l/m 0,0 km/h (0 Bft) W-SW 240 0 min 0 W/m 2,5 C 4,1 C 0,0 km/h (0 Bft)
12.04.2008 00:07 4,1 C 89 % 999,5 hPa 0,0 l/m 0,0 km/h (0 Bft) W-SW 240 0 min 0 W/m 2,5 C 4,1 C 0,0 km/h (0 Bft)
12.04.2008 00:12 4,0 C 89 % 999,5 hPa 0,0 l/m 3,5 km/h (1 Bft) W-SW 240 0 min 0 W/m 2,4 C 4,0 C 3,5 km/h (1 Bft)
12.04.2008 00:17 4,0 C 89 % 999,5 hPa 0,0 l/m 1,4 km/h (1 Bft) W-SW 240 0 min 0 W/m 2,4 C 4,0 C 1,4 km/h (1 Bft)
12.04.2008 00:22 3,9 C 89 % 999,5 hPa 0,0 l/m 0,9 km/h (0 Bft) W-SW 240 0 min 0 W/m 2,3 C 3,9 C 0,9 km/h (0 Bft)
12.04.2008 00:27 3,9 C 89 % 999,5 hPa 0,0 l/m 0,1 km/h (0 Bft) W-SW 240 0 min 0 W/m 2,3 C 3,9 C 0,1 km/h (0 Bft)
12.04.2008 00:32 3,8 C 89 % 999,5 hPa 0,0 l/m 4,2 km/h (1 Bft) W-SW 240 0 min 0 W/m 2,2 C 3,8 C 4,2 km/h (1 Bft)
12.04.2008 00:38 3,7 C 89 % 999,5 hPa 0,0 l/m 5,6 km/h (2 Bft) W-SW 240 0 min 0 W/m 2,1 C 3,7 C 5,6 km/h (2 Bft)
12.04.2008 00:43 3,6 C 89 % 999,5 hPa 0,0 l/m 5,0 km/h (1 Bft) W-SW 240 0 min 0 W/m 2,0 C 3,6 C 5,0 km/h (1 Bft)
12.04.2008 00:48 3,5 C 90 % 999,5 hPa 0,0 l/m 4,3 km/h (1 Bft) SW 225 0 min 0 W/m 2,0 C 3,5 C 4,3 km/h (1 Bft)
12.04.2008 00:53 3,5 C 90 % 999,5 hPa 0,0 l/m 4,3 km/h (1 Bft) SW 225 0 min 0 W/m 2,0 C 3,5 C 4,3 km/h (1 Bft)
12.04.2008 00:58 3,5 C 90 % 999,5 hPa 0,0 l/m 4,2 km/h (1 Bft) SW 225 0 min 0 W/m 2,0 C 3,5 C 4,2 km/h (1 Bft)
12.04.2008 01:03 3,4 C 90 % 999,5 hPa 0,0 l/m 5,0 km/h (1 Bft) SW 225 0 min 0 W/m 1,9 C 3,4 C 5,0 km/h (1 Bft)
12.04.2008 01:07 3,5 C 91 % 999,5 hPa 0,0 l/m 6,7 km/h (2 Bft) W-SW 250 0 min 0 W/m 2,2 C 3,2 C 6,7 km/h (2 Bft)
12.04.2008 01:12 3,5 C 91 % 999,5 hPa 0,0 l/m 6,8 km/h (2 Bft) W-SW 245 0 min 0 W/m 2,2 C 3,1 C 6,8 km/h (2 Bft)
12.04.2008 01:17 3,5 C 91 % 999,5 hPa 0,0 l/m 6,1 km/h (2 Bft) SW 230 0 min 0 W/m 2,2 C 3,5 C 6,1 km/h (2 Bft)
12.04.2008 01:22 3,5 C 91 % 999,5 hPa 0,0 l/m 5,9 km/h (2 Bft) W-SW 245 0 min 0 W/m 2,2 C 3,5 C 5,9 km/h (2 Bft)
12.04.2008 01:27 3,4 C 91 % 999,5 hPa 0,0 l/m 4,8 km/h (1 Bft) W-SW 245 0 min 0 W/m 2,1 C 3,4 C 4,8 km/h (1 Bft)
12.04.2008 01:32 3,3 C 91 % 999,5 hPa 0,0 l/m 5,6 km/h (2 Bft) W-SW 240 0 min 0 W/m 2,0 C 3,3 C 5,6 km/h (2 Bft)
12.04.2008 01:38 3,2 C 91 % 999,5 hPa 0,0 l/m 6,1 km/h (2 Bft) W-SW 245 0 min 0 W/m 1,9 C 3,2 C 6,1 km/h (2 Bft)
12.04.2008 01:43 3,1 C 91 % 999,5 hPa 0,0 l/m 1,3 km/h (1 Bft) SW 225 0 min 0 W/m 1,8 C 3,1 C 1,3 km/h (1 Bft)
12.04.2008 01:48 3,1 C 91 % 999,5 hPa 0,0 l/m 0,5 km/h (0 Bft) SW 220 0 min 0 W/m 1,8 C 3,1 C 0,5 km/h (0 Bft)
12.04.2008 01:53 3,1 C 91 % 999,5 hPa 0,0 l/m 4,4 km/h (1 Bft) SW 220 0 min 0 W/m 1,8 C 3,1 C 4,4 km/h (1 Bft)
12.04.2008 01:58 3,0 C 91 % 999,5 hPa 0,0 l/m 3,7 km/h (1 Bft) SW 220 0 min 0 W/m 1,7 C 3,0 C 3,7 km/h (1 Bft)
12.04.2008 02:03 2,9 C 91 % 999,5 hPa 0,0 l/m 4,5 km/h (1 Bft) SW 220 0 min 0 W/m 1,6 C 2,9 C 4,5 km/h (1 Bft)
12.04.2008 02:07 2,9 C 91 % 999,5 hPa 0,0 l/m 3,0 km/h (1 Bft) SW 220 0 min 0 W/m 1,6 C 2,9 C 3,0 km/h (1 Bft)
12.04.2008 02:12 2,8 C 91 % 999,5 hPa 0,0 l/m 3,0 km/h (1 Bft) SW 225 0 min 0 W/m 1,5 C 2,8 C 3,0 km/h (1 Bft)
12.04.2008 02:17 2,8 C 91 % 999,5 hPa 0,0 l/m 3,8 km/h (1 Bft) SW 225 0 min 0 W/m 1,5 C 2,8 C 3,8 km/h (1 Bft)
12.04.2008 02:22 2,9 C 91 % 999,5 hPa 0,0 l/m 2,4 km/h (1 Bft) SW 225 0 min 0 W/m 1,6 C 2,9 C 2,4 km/h (1 Bft)
12.04.2008 02:27 2,8 C 91 % 999,5 hPa 0,0 l/m 6,5 km/h (2 Bft) SW 215 0 min 0 W/m 1,5 C 2,7 C 6,5 km/h (2 Bft)
12.04.2008 02:33 2,7 C 91 % 999,5 hPa 0,0 l/m 4,1 km/h (1 Bft) S-SW 210 0 min 0 W/m 1,4 C 2,7 C 4,1 km/h (1 Bft)
12.04.2008 02:38 2,6 C 91 % 999,5 hPa 0,0 l/m 2,8 km/h (1 Bft) S-SW 210 0 min 0 W/m 1,3 C 2,6 C 2,8 km/h (1 Bft)
12.04.2008 02:43 2,6 C 92 % 999,5 hPa 0,0 l/m 0,3 km/h (0 Bft) S-SW 210 0 min 0 W/m 1,4 C 2,6 C 0,3 km/h (0 Bft)
12.04.2008 02:48 2,6 C 92 % 999,5 hPa 0,0 l/m 0,7 km/h (0 Bft) S-SW 210 0 min 0 W/m 1,4 C 2,6 C 0,7 km/h (0 Bft)
12.04.2008 02:53 2,5 C 92 % 999,5 hPa 0,0 l/m 3,1 km/h (1 Bft) S-SW 210 0 min 0 W/m 1,3 C 2,5 C 3,1 km/h (1 Bft)
12.04.2008 02:58 2,5 C 92 % 999,5 hPa 0,0 l/m 5,0 km/h (1 Bft) S-SW 210 0 min 0 W/m 1,3 C 2,5 C 5,0 km/h (1 Bft)
12.04.2008 03:03 2,5 C 92 % 999,5 hPa 0,0 l/m 3,0 km/h (1 Bft) S-SW 210 0 min 0 W/m 1,3 C 2,5 C 3,0 km/h (1 Bft)
12.04.2008 03:07 2,4 C 92 % 999,5 hPa 0,0 l/m 0,6 km/h (0 Bft) S-SW 210 0 min 0 W/m 1,2 C 2,4 C 0,6 km/h (0 Bft)
12.04.2008 03:12 2,3 C 92 % 999,5 hPa 0,0 l/m 4,2 km/h (1 Bft) S-SW 210 0 min 0 W/m 1,1 C 2,3 C 4,2 km/h (1 Bft)
12.04.2008 03:17 2,3 C 92 % 999,5 hPa 0,0 l/m 4,3 km/h (1 Bft) S-SW 210 0 min 0 W/m 1,1 C 2,3 C 4,3 km/h (1 Bft)
12.04.2008 03:22 2,2 C 92 % 999,5 hPa 0,0 l/m 5,0 km/h (1 Bft) S-SW 210 0 min 0 W/m 1,0 C 2,2 C 5,0 km/h (1 Bft)
12.04.2008 03:28 2,2 C 92 % 999,5 hPa 0,0 l/m 6,3 km/h (2 Bft) S-SW 210 0 min 0 W/m 1,0 C 2,2 C 6,3 km/h (2 Bft)
12.04.2008 03:33 2,4 C 92 % 999,5 hPa 0,0 l/m 7,4 km/h (2 Bft) S-SW 210 0 min 0 W/m 1,2 C 1,4 C 7,4 km/h (2 Bft)
12.04.2008 03:38 2,5 C 93 % 999,5 hPa 0,0 l/m 6,4 km/h (2 Bft) SW 215 0 min 0 W/m 1,5 C 2,5 C 6,4 km/h (2 Bft)
12.04.2008 03:43 2,7 C 94 % 999,5 hPa 0,0 l/m 12,1 km/h (2 Bft) W-SW 250 0 min 0 W/m 1,8 C -2,0 C 12,1 km/h (2 Bft)
12.04.2008 03:48 3,0 C 95 % 999,5 hPa 0,0 l/m 13,8 km/h (3 Bft) W-SW 250 0 min 0 W/m 2,3 C -2,7 C 13,8 km/h (3 Bft)
12.04.2008 03:53 3,3 C 95 % 999,5 hPa 0,0 l/m 13,3 km/h (3 Bft) W 260 0 min 0 W/m 2,6 C -2,0 C 13,3 km/h (3 Bft)
12.04.2008 03:58 3,5 C 95 % 999,5 hPa 0,0 l/m 11,1 km/h (2 Bft) W-SW 255 0 min 0 W/m 2,8 C -0,4 C 11,1 km/h (2 Bft)
12.04.2008 04:03 3,5 C 95 % 999,5 hPa 0,0 l/m 13,9 km/h (3 Bft) W-SW 240 0 min 0 W/m 2,8 C -2,1 C 13,9 km/h (3 Bft)
12.04.2008 04:07 3,5 C 95 % 999,5 hPa 0,0 l/m 9,1 km/h (2 Bft) W-SW 240 0 min 0 W/m 2,8 C 1,1 C 9,1 km/h (2 Bft)
12.04.2008 04:12 3,4 C 94 % 999,5 hPa 0,0 l/m 9,4 km/h (2 Bft) W-SW 240 0 min 0 W/m 2,5 C 0,8 C 9,4 km/h (2 Bft)
12.04.2008 04:17 3,3 C 94 % 999,5 hPa 0,0 l/m 8,5 km/h (2 Bft) S-SW 205 0 min 0 W/m 2,4 C 1,4 C 8,5 km/h (2 Bft)
12.04.2008 04:23 3,1 C 94 % 999,5 hPa 0,0 l/m 8,6 km/h (2 Bft) S-SW 205 0 min 0 W/m 2,2 C 1,1 C 8,6 km/h (2 Bft)
12.04.2008 04:28 3,1 C 94 % 999,5 hPa 0,0 l/m 6,4 km/h (2 Bft) SW 220 0 min 0 W/m 2,2 C 3,1 C 6,4 km/h (2 Bft)
12.04.2008 04:33 3,0 C 94 % 999,5 hPa 0,0 l/m 9,0 km/h (2 Bft) SW 230 0 min 0 W/m 2,1 C 0,6 C 9,0 km/h (2 Bft)
12.04.2008 04:38 3,0 C 94 % 999,5 hPa 0,0 l/m 7,7 km/h (2 Bft) W-SW 240 0 min 0 W/m 2,1 C 1,8 C 7,7 km/h (2 Bft)
12.04.2008 04:43 3,1 C 94 % 999,5 hPa 0,0 l/m 8,5 km/h (2 Bft) W-SW 245 0 min 0 W/m 2,2 C 1,2 C 8,5 km/h (2 Bft)
12.04.2008 04:48 3,1 C 94 % 999,5 hPa 0,0 l/m 10,8 km/h (2 Bft) W-SW 250 0 min 0 W/m 2,2 C -0,6 C 10,8 km/h (2 Bft)
12.04.2008 04:53 3,1 C 95 % 999,5 hPa 0,0 l/m 10,8 km/h (2 Bft) W-SW 250 0 min 0 W/m 2,4 C -0,6 C 10,8 km/h (2 Bft)
12.04.2008 04:58 3,1 C 95 % 999,5 hPa 0,0 l/m 8,9 km/h (2 Bft) W-SW 245 0 min 0 W/m 2,4 C 0,8 C 8,9 km/h (2 Bft)
12.04.2008 05:03 3,2 C 95 % 999,5 hPa 0,0 l/m 10,1 km/h (2 Bft) W-SW 250 0 min 0 W/m 2,5 C 0,0 C 10,1 km/h (2 Bft)
12.04.2008 05:07 3,2 C 95 % 999,5 hPa 0,0 l/m 10,8 km/h (2 Bft) W-SW 245 0 min 0 W/m 2,5 C -0,5 C 10,8 km/h (2 Bft)
12.04.2008 05:12 3,2 C 95 % 999,5 hPa 0,0 l/m 9,7 km/h (2 Bft) W-SW 250 0 min 0 W/m 2,5 C 0,3 C 9,7 km/h (2 Bft)
12.04.2008 05:18 3,2 C 95 % 999,5 hPa 0,0 l/m 8,9 km/h (2 Bft) W-SW 240 0 min 0 W/m 2,5 C 0,9 C 8,9 km/h (2 Bft)
12.04.2008 05:23 3,1 C 95 % 999,5 hPa 0,0 l/m 7,6 km/h (2 Bft) SW 230 0 min 0 W/m 2,4 C 2,0 C 7,6 km/h (2 Bft)
12.04.2008 05:28 3,1 C 95 % 999,5 hPa 0,0 l/m 6,6 km/h (2 Bft) SW 230 0 min 0 W/m 2,4 C 2,9 C 6,6 km/h (2 Bft)
12.04.2008 05:33 3,1 C 95 % 999,5 hPa 0,0 l/m 8,9 km/h (2 Bft) W-SW 250 0 min 0 W/m 2,4 C 0,8 C 8,9 km/h (2 Bft)
12.04.2008 05:38 3,1 C 95 % 999,5 hPa 0,0 l/m 9,0 km/h (2 Bft) W-SW 240 0 min 0 W/m 2,4 C 0,8 C 9,0 km/h (2 Bft)
12.04.2008 05:43 3,2 C 95 % 999,5 hPa 0,0 l/m 12,1 km/h (2 Bft) W-SW 255 0 min 0 W/m 2,5 C -1,4 C 12,1 km/h (2 Bft)
12.04.2008 05:48 3,5 C 96 % 999,5 hPa 0,0 l/m 11,1 km/h (2 Bft) W 260 0 min 0 W/m 2,9 C -0,4 C 11,1 km/h (2 Bft)
12.04.2008 05:52 3,9 C 96 % 999,5 hPa 0,0 l/m 14,0 km/h (3 Bft) W 260 0 min 0 W/m 3,3 C -1,7 C 14,0 km/h (3 Bft)
12.04.2008 05:57 4,1 C 96 % 999,5 hPa 0,0 l/m 13,2 km/h (3 Bft) W 260 0 min 0 W/m 3,5 C -1,0 C 13,2 km/h (3 Bft)
12.04.2008 06:02 4,2 C 96 % 999,5 hPa 0,0 l/m 10,8 km/h (2 Bft) W-SW 255 0 min 0 W/m 3,6 C 0,6 C 10,8 km/h (2 Bft)
12.04.2008 06:08 4,4 C 96 % 999,5 hPa 0,0 l/m 17,0 km/h (3 Bft) W-SW 255 0 min 0 W/m 3,8 C -2,6 C 17,0 km/h (3 Bft)
12.04.2008 06:13 4,6 C 96 % 999,5 hPa 0,0 l/m 17,0 km/h (3 Bft) W-SW 255 0 min 0 W/m 4,0 C -2,4 C 17,0 km/h (3 Bft)
12.04.2008 06:18 4,6 C 96 % 999,5 hPa 0,0 l/m 12,1 km/h (2 Bft) W-SW 255 0 min 0 W/m 4,0 C 0,2 C 12,1 km/h (2 Bft)
12.04.2008 06:23 4,7 C 95 % 999,5 hPa 0,0 l/m 15,4 km/h (3 Bft) W-SW 255 0 min 0 W/m 4,0 C -1,5 C 15,4 km/h (3 Bft)
12.04.2008 06:28 4,7 C 95 % 999,5 hPa 0,0 l/m 13,1 km/h (3 Bft) W 260 0 min 0 W/m 4,0 C -0,2 C 13,1 km/h (3 Bft)
12.04.2008 06:33 4,8 C 95 % 999,5 hPa 0,0 l/m 12,8 km/h (3 Bft) W 260 0 min 0 W/m 4,1 C 0,0 C 12,8 km/h (3 Bft)
12.04.2008 06:37 4,9 C 95 % 999,5 hPa 0,0 l/m 11,9 km/h (2 Bft) W-SW 250 0 min 0 W/m 4,2 C 0,7 C 11,9 km/h (2 Bft)
12.04.2008 06:42 4,9 C 94 % 999,5 hPa 0,0 l/m 9,5 km/h (2 Bft) W-SW 255 0 min 0 W/m 4,0 C 2,3 C 9,5 km/h (2 Bft)
12.04.2008 06:47 4,7 C 94 % 999,5 hPa 0,0 l/m 10,1 km/h (2 Bft) W-SW 250 0 min 0 W/m 3,8 C 1,7 C 10,1 km/h (2 Bft)
12.04.2008 06:52 4,8 C 94 % 999,5 hPa 0,0 l/m 15,0 km/h (3 Bft) W-SW 255 0 min 0 W/m 3,9 C -1,2 C 15,0 km/h (3 Bft)
12.04.2008 06:57 4,8 C 94 % 999,5 hPa 0,0 l/m 13,1 km/h (3 Bft) W-SW 255 0 min 0 W/m 3,9 C -0,1 C 13,1 km/h (3 Bft)
12.04.2008 07:02 4,8 C 94 % 999,5 hPa 0,0 l/m 12,7 km/h (3 Bft) W-SW 250 0 min 0 W/m 3,9 C 0,1 C 12,7 km/h (3 Bft)
12.04.2008 07:08 4,8 C 94 % 999,5 hPa 0,0 l/m 11,8 km/h (2 Bft) W-SW 255 0 min 0 W/m 3,9 C 0,7 C 11,8 km/h (2 Bft)
12.04.2008 07:13 4,8 C 94 % 999,5 hPa 0,0 l/m 15,3 km/h (3 Bft) W-SW 255 0 min 0 W/m 3,9 C -1,3 C 15,3 km/h (3 Bft)
12.04.2008 07:17 4,9 C 94 % 999,5 hPa 0,0 l/m 12,6 km/h (3 Bft) W-SW 250 0 min 0 W/m 4,0 C 0,3 C 12,6 km/h (3 Bft)
12.04.2008 07:22 4,9 C 94 % 999,5 hPa 0,0 l/m 8,3 km/h (2 Bft) W-SW 250 0 min 0 W/m 4,0 C 3,3 C 8,3 km/h (2 Bft)
12.04.2008 07:27 5,1 C 95 % 999,5 hPa 0,0 l/m 14,6 km/h (3 Bft) W 260 0 min 0 W/m 4,4 C -0,6 C 14,6 km/h (3 Bft)
12.04.2008 07:32 5,2 C 95 % 999,5 hPa 0,0 l/m 12,6 km/h (3 Bft) W 260 0 min 0 W/m 4,5 C 0,6 C 12,6 km/h (3 Bft)
12.04.2008 07:37 5,2 C 95 % 999,5 hPa 0,0 l/m 14,8 km/h (3 Bft) W-SW 255 0 min 0 W/m 4,5 C -0,6 C 14,8 km/h (3 Bft)
12.04.2008 07:42 5,3 C 95 % 999,5 hPa 0,0 l/m 20,3 km/h (4 Bft) W 260 0 min 0 W/m 4,6 C -2,9 C 20,3 km/h (4 Bft)
12.04.2008 07:47 5,4 C 95 % 999,5 hPa 0,0 l/m 15,3 km/h (3 Bft) W-SW 250 0 min 0 W/m 4,7 C -0,6 C 15,3 km/h (3 Bft)
12.04.2008 07:53 5,4 C 94 % 999,5 hPa 0,0 l/m 17,6 km/h (3 Bft) W-SW 250 0 min 0 W/m 4,5 C -1,7 C 17,6 km/h (3 Bft)
12.04.2008 07:58 5,4 C 94 % 999,5 hPa 0,0 l/m 16,0 km/h (3 Bft) W-SW 250 0 min 0 W/m 4,5 C -0,9 C 16,0 km/h (3 Bft)
12.04.2008 08:03 5,5 C 94 % 999,5 hPa 0,0 l/m 18,2 km/h (3 Bft) W-SW 255 0 min 0 W/m 4,6 C -1,8 C 18,2 km/h (3 Bft)
12.04.2008 08:07 5,6 C 94 % 999,5 hPa 0,0 l/m 21,6 km/h (4 Bft) W 260 0 min 0 W/m 4,7 C -3,0 C 21,6 km/h (4 Bft)
12.04.2008 08:12 5,6 C 94 % 999,5 hPa 0,0 l/m 15,3 km/h (3 Bft) W-SW 255 0 min 0 W/m 4,7 C -0,3 C 15,3 km/h (3 Bft)
12.04.2008 08:17 5,7 C 94 % 999,5 hPa 0,0 l/m 15,8 km/h (3 Bft) W-SW 250 0 min 0 W/m 4,8 C -0,5 C 15,8 km/h (3 Bft)
12.04.2008 08:22 5,8 C 94 % 999,5 hPa 0,0 l/m 19,9 km/h (4 Bft) W-SW 250 0 min 0 W/m 4,9 C -2,1 C 19,9 km/h (4 Bft)
12.04.2008 08:27 5,9 C 94 % 999,5 hPa 0,0 l/m 20,4 km/h (4 Bft) W-SW 250 0 min 0 W/m 5,0 C -2,2 C 20,4 km/h (4 Bft)
12.04.2008 08:32 6,0 C 94 % 999,5 hPa 0,0 l/m 21,8 km/h (4 Bft) W-SW 255 0 min 0 W/m 5,1 C -2,5 C 21,8 km/h (4 Bft)
12.04.2008 08:38 6,1 C 93 % 999,5 hPa 0,0 l/m 20,6 km/h (4 Bft) W-SW 250 0 min 0 W/m 5,1 C -2,0 C 20,6 km/h (4 Bft)
12.04.2008 08:43 6,2 C 93 % 999,5 hPa 0,0 l/m 16,6 km/h (3 Bft) W-SW 255 0 min 0 W/m 5,2 C -0,2 C 16,6 km/h (3 Bft)
12.04.2008 08:48 6,4 C 93 % 999,5 hPa 0,0 l/m 18,1 km/h (3 Bft) W-SW 255 0 min 0 W/m 5,4 C -0,6 C 18,1 km/h (3 Bft)
12.04.2008 08:53 6,4 C 92 % 999,5 hPa 0,0 l/m 18,1 km/h (3 Bft) W-SW 255 0 min 0 W/m 5,2 C -0,6 C 18,1 km/h (3 Bft)
12.04.2008 08:58 6,4 C 92 % 999,5 hPa 0,0 l/m 16,6 km/h (3 Bft) W-SW 250 0 min 0 W/m 5,2 C 0,0 C 16,6 km/h (3 Bft)
12.04.2008 09:03 6,7 C 92 % 999,5 hPa 0,0 l/m 23,4 km/h (4 Bft) W 260 0 min 0 W/m 5,5 C -2,1 C 23,4 km/h (4 Bft)
12.04.2008 09:07 6,7 C 91 % 999,5 hPa 0,0 l/m 19,1 km/h (3 Bft) W-SW 250 0 min 0 W/m 5,3 C -0,6 C 19,1 km/h (3 Bft)
12.04.2008 09:12 6,8 C 91 % 999,5 hPa 0,0 l/m 23,7 km/h (4 Bft) W-SW 250 0 min 0 W/m 5,4 C -2,1 C 23,7 km/h (4 Bft)
12.04.2008 09:18 6,8 C 91 % 999,5 hPa 0,0 l/m 17,0 km/h (3 Bft) W-SW 250 0 min 0 W/m 5,4 C 0,3 C 17,0 km/h (3 Bft)
12.04.2008 09:23 7,0 C 91 % 999,5 hPa 0,0 l/m 22,6 km/h (4 Bft) W-SW 255 0 min 0 W/m 5,6 C -1,5 C 22,6 km/h (4 Bft)
12.04.2008 09:28 7,1 C 91 % 999,5 hPa 0,0 l/m 21,5 km/h (4 Bft) W-SW 250 0 min 0 W/m 5,7 C -1,0 C 21,5 km/h (4 Bft)
12.04.2008 09:33 7,2 C 90 % 999,5 hPa 0,0 l/m 21,6 km/h (4 Bft) W-SW 245 0 min 0 W/m 5,7 C -0,9 C 21,6 km/h (4 Bft)
12.04.2008 09:38 7,3 C 90 % 999,5 hPa 0,0 l/m 23,0 km/h (4 Bft) W-SW 245 0 min 0 W/m 5,8 C -1,2 C 23,0 km/h (4 Bft)
12.04.2008 09:43 7,4 C 89 % 999,5 hPa 0,0 l/m 18,8 km/h (3 Bft) W-SW 250 0 min 0 W/m 5,7 C 0,4 C 18,8 km/h (3 Bft)
12.04.2008 09:48 8,4 C 87 % 999,5 hPa 0,0 l/m 18,3 km/h (3 Bft) W-SW 255 0 min 0 W/m 6,4 C 1,8 C 18,3 km/h (3 Bft)
12.04.2008 09:52 9,1 C 83 % 999,5 hPa 0,0 l/m 20,3 km/h (4 Bft) W-SW 245 0 min 0 W/m 6,4 C 2,0 C 20,3 km/h (4 Bft)
12.04.2008 09:57 9,4 C 82 % 999,5 hPa 0,0 l/m 23,7 km/h (4 Bft) W-SW 250 0 min 0 W/m 6,5 C 1,4 C 23,7 km/h (4 Bft)
12.04.2008 10:02 9,4 C 81 % 999,5 hPa 0,0 l/m 18,8 km/h (3 Bft) W-SW 250 0 min 0 W/m 6,3 C 2,9 C 18,8 km/h (3 Bft)
12.04.2008 10:08 9,7 C 81 % 999,5 hPa 0,0 l/m 21,4 km/h (4 Bft) SW 225 0 min 0 W/m 6,6 C 2,5 C 21,4 km/h (4 Bft)
12.04.2008 10:13 9,6 C 80 % 999,5 hPa 0,0 l/m 24,6 km/h (4 Bft) W-SW 250 0 min 0 W/m 6,3 C 1,4 C 24,6 km/h (4 Bft)
12.04.2008 10:18 9,6 C 80 % 999,5 hPa 0,0 l/m 26,0 km/h (4 Bft) W-SW 250 0 min 0 W/m 6,3 C 1,0 C 26,0 km/h (4 Bft)
12.04.2008 10:23 9,9 C 78 % 999,5 hPa 0,0 l/m 25,6 km/h (4 Bft) W-SW 250 0 min 0 W/m 6,2 C 1,5 C 25,6 km/h (4 Bft)
12.04.2008 10:28 10,5 C 78 % 999,5 hPa 0,0 l/m 20,3 km/h (4 Bft) W-SW 250 0 min 0 W/m 6,8 C 3,8 C 20,3 km/h (4 Bft)
12.04.2008 10:32 11,0 C 79 % 999,5 hPa 0,0 l/m 19,4 km/h (3 Bft) W-SW 240 0 min 0 W/m 7,5 C 4,8 C 19,4 km/h (3 Bft)
12.04.2008 10:37 11,4 C 74 % 999,5 hPa 0,0 l/m 24,0 km/h (4 Bft) W-SW 250 0 min 0 W/m 6,9 C 4,0 C 24,0 km/h (4 Bft)
12.04.2008 10:42 10,9 C 73 % 999,5 hPa 0,0 l/m 22,7 km/h (4 Bft) W-SW 250 0 min 0 W/m 6,3 C 3,7 C 22,7 km/h (4 Bft)
12.04.2008 10:47 10,8 C 74 % 999,5 hPa 0,0 l/m 22,8 km/h (4 Bft) W-SW 250 0 min 0 W/m 6,4 C 3,5 C 22,8 km/h (4 Bft)
12.04.2008 10:52 10,6 C 76 % 999,5 hPa 0,0 l/m 22,7 km/h (4 Bft) W-SW 255 0 min 0 W/m 6,5 C 3,3 C 22,7 km/h (4 Bft)
12.04.2008 10:57 10,8 C 76 % 999,5 hPa 0,0 l/m 23,3 km/h (4 Bft) SW 230 0 min 0 W/m 6,7 C 3,4 C 23,3 km/h (4 Bft)
12.04.2008 11:02 11,0 C 77 % 999,5 hPa 0,0 l/m 21,4 km/h (4 Bft) SW 225 0 min 0 W/m 7,1 C 4,2 C 21,4 km/h (4 Bft)
12.04.2008 11:08 11,2 C 76 % 999,5 hPa 0,0 l/m 17,6 km/h (3 Bft) SW 230 0 min 0 W/m 7,1 C 5,6 C 17,6 km/h (3 Bft)
12.04.2008 11:13 11,4 C 77 % 999,5 hPa 0,0 l/m 20,5 km/h (4 Bft) SW 225 0 min 0 W/m 7,5 C 4,9 C 20,5 km/h (4 Bft)
12.04.2008 11:17 11,7 C 72 % 999,5 hPa 0,0 l/m 24,0 km/h (4 Bft) SW 225 0 min 0 W/m 6,8 C 4,4 C 24,0 km/h (4 Bft)
12.04.2008 11:22 11,4 C 72 % 999,5 hPa 0,0 l/m 26,5 km/h (4 Bft) SW 225 0 min 0 W/m 6,5 C 3,4 C 26,5 km/h (4 Bft)
12.04.2008 11:27 11,7 C 73 % 999,5 hPa 0,0 l/m 21,0 km/h (4 Bft) S-SW 210 0 min 0 W/m 7,0 C 5,2 C 21,0 km/h (4 Bft)
12.04.2008 11:32 11,8 C 72 % 999,5 hPa 0,0 l/m 18,6 km/h (3 Bft) W-SW 250 0 min 0 W/m 6,9 C 6,0 C 18,6 km/h (3 Bft)
12.04.2008 11:37 12,0 C 73 % 999,5 hPa 0,0 l/m 24,6 km/h (4 Bft) SW 235 0 min 0 W/m 7,3 C 4,6 C 24,6 km/h (4 Bft)
12.04.2008 11:42 11,5 C 70 % 999,5 hPa 0,0 l/m 27,3 km/h (5 Bft) W-SW 240 0 min 0 W/m 6,2 C 3,3 C 27,3 km/h (5 Bft)
12.04.2008 11:47 11,5 C 73 % 1003,5 hPa 0,0 l/m 26,1 km/h (4 Bft) W-SW 245 0 min 0 W/m 6,8 C 3,6 C 26,1 km/h (4 Bft)
12.04.2008 11:53 11,5 C 71 % 1003,5 hPa 0,0 l/m 31,2 km/h (5 Bft) W-SW 250 0 min 0 W/m 6,4 C 2,5 C 31,2 km/h (5 Bft)
12.04.2008 11:58 11,6 C 71 % 1003,5 hPa 0,0 l/m 27,1 km/h (5 Bft) W-SW 245 0 min 0 W/m 6,5 C 3,5 C 27,1 km/h (5 Bft)
12.04.2008 12:03 12,0 C 70 % 1003,5 hPa 0,0 l/m 29,5 km/h (5 Bft) W-SW 250 0 min 0 W/m 6,7 C 3,6 C 29,5 km/h (5 Bft)
12.04.2008 12:07 12,0 C 68 % 1003,5 hPa 0,0 l/m 33,4 km/h (5 Bft) W-SW 250 0 min 0 W/m 6,3 C 2,9 C 33,4 km/h (5 Bft)
12.04.2008 12:12 12,0 C 67 % 1003,5 hPa 0,0 l/m 30,2 km/h (5 Bft) W-SW 250 0 min 0 W/m 6,1 C 3,4 C 30,2 km/h (5 Bft)
12.04.2008 12:17 11,8 C 67 % 1003,5 hPa 0,0 l/m 38,9 km/h (6 Bft) W 265 0 min 0 W/m 5,9 C 1,7 C 38,9 km/h (6 Bft)
12.04.2008 12:22 12,0 C 64 % 1003,5 hPa 0,0 l/m 34,5 km/h (5 Bft) W-SW 255 0 min 0 W/m 5,4 C 2,7 C 34,5 km/h (5 Bft)
12.04.2008 12:27 11,8 C 62 % 1003,5 hPa 0,0 l/m 37,3 km/h (5 Bft) W-SW 250 0 min 0 W/m 4,8 C 1,9 C 37,3 km/h (5 Bft)
12.04.2008 12:33 11,6 C 64 % 1003,5 hPa 0,0 l/m 40,5 km/h (6 Bft) W-SW 240 0 min 0 W/m 5,0 C 1,2 C 40,5 km/h (6 Bft)
12.04.2008 12:38 11,8 C 66 % 1003,5 hPa 0,0 l/m 30,3 km/h (5 Bft) W-SW 240 0 min 0 W/m 5,7 C 3,1 C 30,3 km/h (5 Bft)
12.04.2008 12:43 12,0 C 68 % 1003,5 hPa 0,0 l/m 27,7 km/h (5 Bft) W-SW 245 0 min 0 W/m 6,3 C 3,9 C 27,7 km/h (5 Bft)
12.04.2008 12:48 12,4 C 65 % 1003,5 hPa 0,0 l/m 36,2 km/h (5 Bft) W-SW 245 0 min 0 W/m 6,0 C 3,0 C 36,2 km/h (5 Bft)
12.04.2008 12:53 12,5 C 66 % 1003,5 hPa 0,0 l/m 31,3 km/h (5 Bft) W-SW 250 0 min 0 W/m 6,3 C 3,9 C 31,3 km/h (5 Bft)
12.04.2008 12:58 12,5 C 63 % 1003,5 hPa 0,0 l/m 35,0 km/h (5 Bft) W-SW 250 0 min 0 W/m 5,7 C 3,3 C 35,0 km/h (5 Bft)
12.04.2008 13:02 12,5 C 64 % 1003,5 hPa 0,0 l/m 35,3 km/h (5 Bft) W-SW 250 0 min 0 W/m 5,9 C 3,3 C 35,3 km/h (5 Bft)
12.04.2008 13:08 12,5 C 62 % 1003,5 hPa 0,0 l/m 35,8 km/h (5 Bft) W-SW 250 0 min 0 W/m 5,4 C 3,2 C 35,8 km/h (5 Bft)
12.04.2008 13:13 12,4 C 62 % 1003,5 hPa 0,0 l/m 33,1 km/h (5 Bft) W-SW 250 0 min 0 W/m 5,3 C 3,5 C 33,1 km/h (5 Bft)
12.04.2008 13:18 12,4 C 62 % 1003,5 hPa 0,0 l/m 40,3 km/h (6 Bft) W-SW 255 0 min 0 W/m 5,3 C 2,4 C 40,3 km/h (6 Bft)
12.04.2008 13:23 12,8 C 60 % 1003,5 hPa 0,0 l/m 32,8 km/h (5 Bft) W-SW 250 0 min 0 W/m 5,2 C 4,1 C 32,8 km/h (5 Bft)
12.04.2008 13:28 13,1 C 60 % 1003,5 hPa 0,0 l/m 31,7 km/h (5 Bft) W-SW 250 0 min 0 W/m 5,5 C 4,7 C 31,7 km/h (5 Bft)
12.04.2008 13:33 13,1 C 59 % 1003,5 hPa 0,0 l/m 30,9 km/h (5 Bft) W-SW 255 0 min 0 W/m 5,3 C 4,9 C 30,9 km/h (5 Bft)
12.04.2008 13:37 13,1 C 58 % 1003,5 hPa 0,0 l/m 41,4 km/h (6 Bft) W-SW 255 0 min 0 W/m 5,0 C 3,3 C 41,4 km/h (6 Bft)
12.04.2008 13:42 13,2 C 58 % 1003,5 hPa 0,0 l/m 40,0 km/h (6 Bft) W-SW 250 0 min 0 W/m 5,1 C 3,6 C 40,0 km/h (6 Bft)
12.04.2008 13:47 12,9 C 57 % 1003,5 hPa 0,0 l/m 34,8 km/h (5 Bft) W-SW 255 0 min 0 W/m 4,6 C 3,9 C 34,8 km/h (5 Bft)
12.04.2008 13:52 13,1 C 59 % 1003,5 hPa 0,0 l/m 39,4 km/h (6 Bft) W-SW 250 0 min 0 W/m 5,3 C 3,6 C 39,4 km/h (6 Bft)
12.04.2008 13:57 13,1 C 58 % 1003,5 hPa 0,0 l/m 30,1 km/h (5 Bft) W 260 0 min 0 W/m 5,0 C 5,0 C 30,1 km/h (5 Bft)
12.04.2008 14:02 12,8 C 58 % 1003,5 hPa 0,0 l/m 36,9 km/h (5 Bft) W-SW 245 0 min 0 W/m 4,7 C 3,5 C 36,9 km/h (5 Bft)
12.04.2008 14:08 12,6 C 58 % 1003,5 hPa 0,0 l/m 37,4 km/h (5 Bft) W-SW 250 0 min 0 W/m 4,6 C 3,1 C 37,4 km/h (5 Bft)
12.04.2008 14:12 13,2 C 56 % 1003,5 hPa 0,0 l/m 29,6 km/h (5 Bft) W-SW 255 0 min 0 W/m 4,6 C 5,2 C 29,6 km/h (5 Bft)
12.04.2008 14:17 12,7 C 57 % 1003,5 hPa 0,0 l/m 38,3 km/h (6 Bft) W-SW 255 0 min 0 W/m 4,4 C 3,1 C 38,3 km/h (6 Bft)
12.04.2008 14:22 12,7 C 57 % 1003,5 hPa 0,0 l/m 30,0 km/h (5 Bft) W-SW 240 0 min 0 W/m 4,4 C 4,5 C 30,0 km/h (5 Bft)
12.04.2008 14:27 12,7 C 57 % 1003,5 hPa 0,0 l/m 30,0 km/h (5 Bft) W-SW 240 0 min 0 W/m 4,4 C 4,5 C 30,0 km/h (5 Bft)
12.04.2008 14:32 12,5 C 57 % 1003,5 hPa 0,0 l/m 32,6 km/h (5 Bft) W-SW 255 0 min 0 W/m 4,2 C 3,7 C 32,6 km/h (5 Bft)
12.04.2008 14:37 12,4 C 58 % 1003,5 hPa 0,0 l/m 35,3 km/h (5 Bft) W-SW 250 0 min 0 W/m 4,4 C 3,1 C 35,3 km/h (5 Bft)
12.04.2008 14:43 12,6 C 59 % 1004,5 hPa 0,0 l/m 31,6 km/h (5 Bft) W-SW 250 0 min 0 W/m 4,8 C 4,0 C 31,6 km/h (5 Bft)
12.04.2008 14:48 13,1 C 56 % 1004,5 hPa 0,0 l/m 31,0 km/h (5 Bft) W-SW 250 0 min 0 W/m 4,5 C 4,8 C 31,0 km/h (5 Bft)
12.04.2008 14:53 13,2 C 57 % 1004,5 hPa 0,0 l/m 30,7 km/h (5 Bft) W-SW 250 0 min 0 W/m 4,9 C 5,0 C 30,7 km/h (5 Bft)
12.04.2008 14:58 13,4 C 58 % 1004,5 hPa 0,0 l/m 31,6 km/h (5 Bft) W-SW 250 0 min 0 W/m 5,3 C 5,2 C 31,6 km/h (5 Bft)
12.04.2008 15:03 13,8 C 57 % 1004,5 hPa 0,0 l/m 34,2 km/h (5 Bft) W-SW 255 0 min 0 W/m 5,4 C 5,3 C 34,2 km/h (5 Bft)
12.04.2008 15:07 13,7 C 55 % 1004,5 hPa 0,0 l/m 34,2 km/h (5 Bft) W-SW 255 0 min 0 W/m 4,8 C 5,2 C 34,2 km/h (5 Bft)
12.04.2008 15:12 13,7 C 54 % 1004,5 hPa 0,0 l/m 33,3 km/h (5 Bft) W-SW 255 0 min 0 W/m 4,6 C 5,3 C 33,3 km/h (5 Bft)
12.04.2008 15:18 13,2 C 58 % 1004,5 hPa 0,0 l/m 35,5 km/h (5 Bft) W-SW 250 0 min 0 W/m 5,1 C 4,3 C 35,5 km/h (5 Bft)
12.04.2008 15:23 13,1 C 56 % 1004,5 hPa 0,0 l/m 33,8 km/h (5 Bft) W 260 0 min 0 W/m 4,5 C 4,4 C 33,8 km/h (5 Bft)
12.04.2008 15:28 12,9 C 56 % 1004,5 hPa 0,0 l/m 29,0 km/h (5 Bft) W 260 0 min 0 W/m 4,3 C 4,9 C 29,0 km/h (5 Bft)
12.04.2008 15:33 12,8 C 59 % 1004,5 hPa 0,0 l/m 26,2 km/h (4 Bft) W-SW 255 0 min 0 W/m 5,0 C 5,4 C 26,2 km/h (4 Bft)
12.04.2008 15:38 12,4 C 59 % 1004,5 hPa 0,0 l/m 25,7 km/h (4 Bft) W-SW 250 0 min 0 W/m 4,6 C 4,9 C 25,7 km/h (4 Bft)
12.04.2008 15:43 12,2 C 63 % 1004,5 hPa 0,0 l/m 35,8 km/h (5 Bft) W 265 0 min 0 W/m 5,4 C 2,8 C 35,8 km/h (5 Bft)
12.04.2008 15:47 11,3 C 71 % 1004,5 hPa 0,0 l/m 29,4 km/h (5 Bft) NW 305 0 min 0 W/m 6,2 C 2,6 C 29,4 km/h (5 Bft)
12.04.2008 15:52 10,5 C 73 % 1004,5 hPa 0,0 l/m 30,5 km/h (5 Bft) NW 305 0 min 0 W/m 5,9 C 1,3 C 30,5 km/h (5 Bft)
12.04.2008 15:57 10,0 C 76 % 1004,5 hPa 0,0 l/m 18,1 km/h (3 Bft) W-NW 290 0 min 0 W/m 6,0 C 3,9 C 18,1 km/h (3 Bft)
12.04.2008 16:02 9,8 C 76 % 1004,5 hPa 0,0 l/m 18,1 km/h (3 Bft) W-NW 290 0 min 0 W/m 5,8 C 3,7 C 18,1 km/h (3 Bft)
12.04.2008 16:08 9,6 C 80 % 1004,5 hPa 0,0 l/m 13,0 km/h (3 Bft) W-NW 300 0 min 0 W/m 6,3 C 5,6 C 13,0 km/h (3 Bft)
12.04.2008 16:13 9,8 C 81 % 1004,5 hPa 0,0 l/m 19,1 km/h (3 Bft) W 270 0 min 0 W/m 6,7 C 3,3 C 19,1 km/h (3 Bft)
12.04.2008 16:17 9,8 C 81 % 1004,5 hPa 0,0 l/m 22,7 km/h (4 Bft) W 265 0 min 0 W/m 6,7 C 2,2 C 22,7 km/h (4 Bft)
12.04.2008 16:22 10,6 C 79 % 1004,5 hPa 0,0 l/m 17,7 km/h (3 Bft) W 270 0 min 0 W/m 7,1 C 4,8 C 17,7 km/h (3 Bft)
12.04.2008 16:27 11,2 C 77 % 1004,5 hPa 0,0 l/m 13,3 km/h (3 Bft) W-NW 285 0 min 0 W/m 7,3 C 7,3 C 13,3 km/h (3 Bft)
12.04.2008 16:32 11,4 C 74 % 1004,5 hPa 0,0 l/m 19,8 km/h (3 Bft) W 275 0 min 0 W/m 6,9 C 5,2 C 19,8 km/h (3 Bft)
12.04.2008 16:37 11,6 C 73 % 1004,5 hPa 0,0 l/m 16,5 km/h (3 Bft) W-NW 285 0 min 0 W/m 6,9 C 6,5 C 16,5 km/h (3 Bft)
12.04.2008 16:42 11,8 C 70 % 1004,5 hPa 0,0 l/m 18,5 km/h (3 Bft) W 270 0 min 0 W/m 6,5 C 6,1 C 18,5 km/h (3 Bft)
12.04.2008 16:48 11,8 C 69 % 1004,5 hPa 0,0 l/m 20,3 km/h (4 Bft) W 265 0 min 0 W/m 6,3 C 5,5 C 20,3 km/h (4 Bft)
12.04.2008 16:53 12,0 C 70 % 1004,5 hPa 0,0 l/m 16,8 km/h (3 Bft) W 260 0 min 0 W/m 6,7 C 6,9 C 16,8 km/h (3 Bft)
12.04.2008 16:58 11,9 C 68 % 1004,5 hPa 0,0 l/m 16,8 km/h (3 Bft) W 260 0 min 0 W/m 6,2 C 6,8 C 16,8 km/h (3 Bft)
12.04.2008 17:03 11,8 C 66 % 1004,5 hPa 0,0 l/m 16,8 km/h (3 Bft) W 260 0 min 0 W/m 5,7 C 6,7 C 16,8 km/h (3 Bft)
12.04.2008 17:08 11,9 C 67 % 1004,5 hPa 0,0 l/m 16,8 km/h (3 Bft) W 260 0 min 0 W/m 6,0 C 6,8 C 16,8 km/h (3 Bft)
12.04.2008 17:13 12,0 C 65 % 1004,5 hPa 0,0 l/m 16,8 km/h (3 Bft) W 260 0 min 0 W/m 5,6 C 6,9 C 16,8 km/h (3 Bft)
12.04.2008 17:18 12,0 C 64 % 1004,5 hPa 0,0 l/m 16,8 km/h (3 Bft) W 260 0 min 0 W/m 5,4 C 6,9 C 16,8 km/h (3 Bft)
12.04.2008 17:23 12,0 C 64 % 1004,5 hPa 0,0 l/m 16,8 km/h (3 Bft) W 260 0 min 0 W/m 5,4 C 6,9 C 16,8 km/h (3 Bft)
12.04.2008 17:28 11,9 C 63 % 1004,5 hPa 0,0 l/m 16,8 km/h (3 Bft) W 260 0 min 0 W/m 5,1 C 6,8 C 16,8 km/h (3 Bft)
12.04.2008 17:33 12,0 C 64 % 1004,5 hPa 0,0 l/m 16,8 km/h (3 Bft) W 260 0 min 0 W/m 5,4 C 6,9 C 16,8 km/h (3 Bft)
12.04.2008 17:38 11,9 C 62 % 1004,5 hPa 0,0 l/m 16,8 km/h (3 Bft) W 260 0 min 0 W/m 4,9 C 6,8 C 16,8 km/h (3 Bft)
12.04.2008 17:43 12,0 C 63 % 1004,5 hPa 0,0 l/m 16,8 km/h (3 Bft) W 260 0 min 0 W/m 5,2 C 6,9 C 16,8 km/h (3 Bft)
12.04.2008 17:48 12,0 C 62 % 1004,5 hPa 0,0 l/m 16,8 km/h (3 Bft) W 260 0 min 0 W/m 4,9 C 6,9 C 16,8 km/h (3 Bft)
12.04.2008 17:53 12,0 C 61 % 1004,5 hPa 0,0 l/m 16,8 km/h (3 Bft) W 260 0 min 0 W/m 4,7 C 6,9 C 16,8 km/h (3 Bft)
12.04.2008 17:58 12,0 C 60 % 1004,5 hPa 0,0 l/m 16,8 km/h (3 Bft) W 260 0 min 0 W/m 4,5 C 6,9 C 16,8 km/h (3 Bft)
12.04.2008 18:03 12,0 C 60 % 1004,5 hPa 0,0 l/m 16,8 km/h (3 Bft) W 260 0 min 0 W/m 4,5 C 6,9 C 16,8 km/h (3 Bft)
12.04.2008 18:08 11,8 C 60 % 1004,5 hPa 0,0 l/m 16,8 km/h (3 Bft) W 260 0 min 0 W/m 4,3 C 6,7 C 16,8 km/h (3 Bft)
12.04.2008 18:13 11,9 C 61 % 1004,5 hPa 0,0 l/m 16,8 km/h (3 Bft) W 260 0 min 0 W/m 4,6 C 6,8 C 16,8 km/h (3 Bft)
12.04.2008 18:18 11,8 C 60 % 1004,5 hPa 0,0 l/m 16,8 km/h (3 Bft) W 260 0 min 0 W/m 4,3 C 6,7 C 16,8 km/h (3 Bft)
12.04.2008 18:23 11,8 C 61 % 1005,5 hPa 0,0 l/m 16,8 km/h (3 Bft) W 260 0 min 0 W/m 4,5 C 6,7 C 16,8 km/h (3 Bft)
12.04.2008 18:28 11,7 C 61 % 1005,5 hPa 0,0 l/m 16,8 km/h (3 Bft) W 260 0 min 0 W/m 4,4 C 6,5 C 16,8 km/h (3 Bft)
12.04.2008 18:33 11,5 C 63 % 1005,5 hPa 0,0 l/m 16,8 km/h (3 Bft) W 260 0 min 0 W/m 4,7 C 6,3 C 16,8 km/h (3 Bft)
12.04.2008 18:38 11,5 C 63 % 1005,5 hPa 0,0 l/m 16,8 km/h (3 Bft) W 260 0 min 0 W/m 4,7 C 6,3 C 16,8 km/h (3 Bft)
12.04.2008 18:43 11,4 C 64 % 1005,5 hPa 0,0 l/m 16,8 km/h (3 Bft) W 260 0 min 0 W/m 4,8 C 6,2 C 16,8 km/h (3 Bft)
12.04.2008 18:48 11,3 C 63 % 1005,5 hPa 0,0 l/m 16,8 km/h (3 Bft) W 260 0 min 0 W/m 4,5 C 6,0 C 16,8 km/h (3 Bft)
12.04.2008 18:53 11,2 C 64 % 1005,5 hPa 0,0 l/m 16,8 km/h (3 Bft) W 260 0 min 0 W/m 4,6 C 5,9 C 16,8 km/h (3 Bft)
12.04.2008 18:58 11,1 C 64 % 1005,5 hPa 0,0 l/m 15,7 km/h (3 Bft) W 260 0 min 0 W/m 4,6 C 6,2 C 15,7 km/h (3 Bft)
12.04.2008 19:03 11,1 C 64 % 1005,5 hPa 0,0 l/m 13,7 km/h (3 Bft) NW 315 0 min 0 W/m 4,6 C 7,0 C 13,7 km/h (3 Bft)
12.04.2008 19:07 11,0 C 66 % 1005,5 hPa 0,0 l/m 10,1 km/h (2 Bft) NW 320 0 min 0 W/m 4,9 C 8,6 C 10,1 km/h (2 Bft)
12.04.2008 19:12 10,7 C 67 % 1005,5 hPa 0,0 l/m 13,8 km/h (3 Bft) NW 325 0 min 0 W/m 4,8 C 6,5 C 13,8 km/h (3 Bft)
12.04.2008 19:17 10,5 C 67 % 1005,5 hPa 0,0 l/m 9,3 km/h (2 Bft) W-NW 300 0 min 0 W/m 4,6 C 8,6 C 9,3 km/h (2 Bft)
12.04.2008 19:23 10,3 C 68 % 1005,5 hPa 0,0 l/m 8,7 km/h (2 Bft) NW 315 0 min 0 W/m 4,7 C 8,7 C 8,7 km/h (2 Bft)
12.04.2008 19:28 10,1 C 69 % 1005,5 hPa 0,0 l/m 10,3 km/h (2 Bft) NW 315 0 min 0 W/m 4,7 C 7,5 C 10,3 km/h (2 Bft)
12.04.2008 19:33 10,0 C 70 % 1005,5 hPa 0,0 l/m 10,2 km/h (2 Bft) NW 325 0 min 0 W/m 4,8 C 7,5 C 10,2 km/h (2 Bft)
12.04.2008 19:38 9,9 C 71 % 1005,5 hPa 0,0 l/m 14,3 km/h (3 Bft) N-NW 330 0 min 0 W/m 4,9 C 5,3 C 14,3 km/h (3 Bft)
12.04.2008 19:43 9,7 C 73 % 1005,5 hPa 0,0 l/m 12,5 km/h (2 Bft) N 350 0 min 0 W/m 5,1 C 5,9 C 12,5 km/h (2 Bft)
12.04.2008 19:48 9,5 C 73 % 1005,5 hPa 0,0 l/m 9,2 km/h (2 Bft) N 5 0 min 0 W/m 4,9 C 7,5 C 9,2 km/h (2 Bft)
12.04.2008 19:52 9,3 C 74 % 1005,5 hPa 0,0 l/m 8,9 km/h (2 Bft) N 360 0 min 0 W/m 4,9 C 7,5 C 8,9 km/h (2 Bft)
12.04.2008 19:57 9,1 C 75 % 1005,5 hPa 0,0 l/m 10,5 km/h (2 Bft) N-NW 340 0 min 0 W/m 4,9 C 6,3 C 10,5 km/h (2 Bft)
12.04.2008 20:02 9,0 C 76 % 1005,5 hPa 0,0 l/m 6,9 km/h (2 Bft) N-NW 345 0 min 0 W/m 5,0 C 8,6 C 6,9 km/h (2 Bft)
12.04.2008 20:08 8,8 C 76 % 1005,5 hPa 0,0 l/m 10,0 km/h (2 Bft) N-NW 345 0 min 0 W/m 4,8 C 6,3 C 10,0 km/h (2 Bft)
12.04.2008 20:13 8,6 C 76 % 1005,5 hPa 0,0 l/m 5,6 km/h (2 Bft) N 350 0 min 0 W/m 4,6 C 8,6 C 5,6 km/h (2 Bft)
12.04.2008 20:18 8,5 C 76 % 1005,5 hPa 0,0 l/m 5,6 km/h (2 Bft) NW 315 0 min 0 W/m 4,5 C 8,5 C 5,6 km/h (2 Bft)
12.04.2008 20:23 8,4 C 77 % 1005,5 hPa 0,0 l/m 7,4 km/h (2 Bft) NW 315 0 min 0 W/m 4,6 C 7,6 C 7,4 km/h (2 Bft)
12.04.2008 20:27 8,3 C 77 % 1005,5 hPa 0,0 l/m 8,1 km/h (2 Bft) NW 325 0 min 0 W/m 4,5 C 7,0 C 8,1 km/h (2 Bft)
12.04.2008 20:32 8,2 C 77 % 1005,5 hPa 0,0 l/m 6,5 km/h (2 Bft) NW 320 0 min 0 W/m 4,4 C 8,1 C 6,5 km/h (2 Bft)
12.04.2008 20:37 8,2 C 77 % 1005,5 hPa 0,0 l/m 1,0 km/h (0 Bft) N-NW 330 0 min 0 W/m 4,4 C 8,2 C 1,0 km/h (0 Bft)
12.04.2008 20:42 8,0 C 77 % 1005,5 hPa 0,0 l/m 9,4 km/h (2 Bft) NW 325 0 min 0 W/m 4,2 C 5,8 C 9,4 km/h (2 Bft)
12.04.2008 20:47 7,9 C 77 % 1005,5 hPa 0,0 l/m 6,5 km/h (2 Bft) W-NW 300 0 min 0 W/m 4,1 C 7,8 C 6,5 km/h (2 Bft)
12.04.2008 20:52 7,8 C 78 % 1005,5 hPa 0,0 l/m 6,0 km/h (2 Bft) NW 305 0 min 0 W/m 4,2 C 7,8 C 6,0 km/h (2 Bft)
12.04.2008 20:58 7,8 C 78 % 1005,5 hPa 0,0 l/m 6,5 km/h (2 Bft) NW 315 0 min 0 W/m 4,2 C 7,7 C 6,5 km/h (2 Bft)
12.04.2008 21:03 7,7 C 78 % 1005,5 hPa 0,0 l/m 5,2 km/h (1 Bft) NW 320 0 min 0 W/m 4,1 C 7,7 C 5,2 km/h (1 Bft)
12.04.2008 21:07 7,6 C 78 % 1005,5 hPa 0,0 l/m 1,7 km/h (1 Bft) NW 310 0 min 0 W/m 4,0 C 7,6 C 1,7 km/h (1 Bft)
12.04.2008 21:12 7,5 C 78 % 1005,5 hPa 0,0 l/m 4,1 km/h (1 Bft) NW 310 0 min 0 W/m 3,9 C 7,5 C 4,1 km/h (1 Bft)
12.04.2008 21:17 7,5 C 78 % 1005,5 hPa 0,0 l/m 6,1 km/h (2 Bft) NW 315 0 min 0 W/m 3,9 C 7,5 C 6,1 km/h (2 Bft)
12.04.2008 21:22 7,3 C 78 % 1005,5 hPa 0,0 l/m 8,5 km/h (2 Bft) N-NW 330 0 min 0 W/m 3,7 C 5,6 C 8,5 km/h (2 Bft)
12.04.2008 21:28 7,3 C 78 % 1005,5 hPa 0,0 l/m 0,7 km/h (0 Bft) N-NW 335 0 min 0 W/m 3,7 C 7,3 C 0,7 km/h (0 Bft)
12.04.2008 21:33 7,2 C 78 % 1005,5 hPa 0,0 l/m 2,5 km/h (1 Bft) N-NW 340 0 min 0 W/m 3,6 C 7,2 C 2,5 km/h (1 Bft)
12.04.2008 21:38 7,1 C 78 % 1005,5 hPa 0,0 l/m 0,0 km/h (0 Bft) NW 315 0 min 0 W/m 3,5 C 7,1 C 0,0 km/h (0 Bft)
12.04.2008 21:43 6,9 C 78 % 1005,5 hPa 0,0 l/m 0,0 km/h (0 Bft) NW 315 0 min 0 W/m 3,3 C 6,9 C 0,0 km/h (0 Bft)
12.04.2008 21:47 6,8 C 78 % 1005,5 hPa 0,0 l/m 0,0 km/h (0 Bft) NW 315 0 min 0 W/m 3,2 C 6,8 C 0,0 km/h (0 Bft)
12.04.2008 21:52 6,6 C 78 % 1005,5 hPa 0,0 l/m 0,0 km/h (0 Bft) NW 315 0 min 0 W/m 3,0 C 6,6 C 0,0 km/h (0 Bft)
12.04.2008 21:57 6,4 C 79 % 1005,5 hPa 0,0 l/m 0,0 km/h (0 Bft) NW 310 0 min 0 W/m 3,0 C 6,4 C 0,0 km/h (0 Bft)
12.04.2008 22:02 6,4 C 79 % 1005,5 hPa 0,0 l/m 0,0 km/h (0 Bft) NW 310 0 min 0 W/m 3,0 C 6,4 C 0,0 km/h (0 Bft)
12.04.2008 22:08 6,2 C 79 % 1005,5 hPa 0,0 l/m 0,0 km/h (0 Bft) NW 310 0 min 0 W/m 2,8 C 6,2 C 0,0 km/h (0 Bft)
12.04.2008 22:13 6,1 C 79 % 1005,5 hPa 0,0 l/m 0,0 km/h (0 Bft) NW 315 0 min 0 W/m 2,7 C 6,1 C 0,0 km/h (0 Bft)
12.04.2008 22:17 6,0 C 80 % 1005,5 hPa 0,0 l/m 0,0 km/h (0 Bft) NW 315 0 min 0 W/m 2,8 C 6,0 C 0,0 km/h (0 Bft)
12.04.2008 22:22 6,0 C 80 % 1005,5 hPa 0,0 l/m 0,0 km/h (0 Bft) NW 315 0 min 0 W/m 2,8 C 6,0 C 0,0 km/h (0 Bft)
12.04.2008 22:27 5,8 C 81 % 1005,5 hPa 0,0 l/m 1,2 km/h (1 Bft) W-SW 240 0 min 0 W/m 2,8 C 5,8 C 1,2 km/h (1 Bft)
12.04.2008 22:32 5,7 C 81 % 1005,5 hPa 0,0 l/m 4,5 km/h (1 Bft) SW 235 0 min 0 W/m 2,7 C 5,7 C 4,5 km/h (1 Bft)
12.04.2008 22:37 5,6 C 81 % 1005,5 hPa 0,0 l/m 4,2 km/h (1 Bft) SW 235 0 min 0 W/m 2,6 C 5,6 C 4,2 km/h (1 Bft)
12.04.2008 22:43 5,6 C 82 % 1005,5 hPa 0,0 l/m 2,3 km/h (1 Bft) W-SW 240 0 min 0 W/m 2,8 C 5,6 C 2,3 km/h (1 Bft)
12.04.2008 22:48 5,7 C 82 % 1005,5 hPa 0,0 l/m 5,1 km/h (1 Bft) SW 230 0 min 0 W/m 2,9 C 5,7 C 5,1 km/h (1 Bft)
12.04.2008 22:53 5,8 C 83 % 1005,5 hPa 0,0 l/m 4,4 km/h (1 Bft) SW 225 0 min 0 W/m 3,1 C 5,8 C 4,4 km/h (1 Bft)
12.04.2008 22:58 5,8 C 83 % 1005,5 hPa 0,0 l/m 5,0 km/h (1 Bft) S 170 0 min 0 W/m 3,1 C 5,8 C 5,0 km/h (1 Bft)
12.04.2008 23:03 6,0 C 84 % 1005,5 hPa 0,0 l/m 2,9 km/h (1 Bft) SO 135 0 min 0 W/m 3,5 C 6,0 C 2,9 km/h (1 Bft)
12.04.2008 23:08 6,0 C 84 % 1005,5 hPa 0,0 l/m 2,9 km/h (1 Bft) SO 135 0 min 0 W/m 3,5 C 6,0 C 2,9 km/h (1 Bft)
12.04.2008 23:13 6,2 C 85 % 1005,5 hPa 0,0 l/m 0,1 km/h (0 Bft) S 180 0 min 0 W/m 3,9 C 6,2 C 0,1 km/h (0 Bft)
12.04.2008 23:18 6,3 C 85 % 1005,5 hPa 0,0 l/m 4,4 km/h (1 Bft) S-SO 160 0 min 0 W/m 4,0 C 6,3 C 4,4 km/h (1 Bft)
12.04.2008 23:23 6,4 C 85 % 1005,5 hPa 0,0 l/m 0,1 km/h (0 Bft) S-SO 150 0 min 0 W/m 4,1 C 6,4 C 0,1 km/h (0 Bft)
12.04.2008 23:28 6,4 C 85 % 1005,5 hPa 0,0 l/m 3,0 km/h (1 Bft) S-SO 150 0 min 0 W/m 4,1 C 6,4 C 3,0 km/h (1 Bft)
12.04.2008 23:32 6,4 C 85 % 1005,5 hPa 0,0 l/m 0,3 km/h (0 Bft) S-SO 150 0 min 0 W/m 4,1 C 6,4 C 0,3 km/h (0 Bft)
12.04.2008 23:37 6,4 C 85 % 1005,5 hPa 0,0 l/m 1,2 km/h (1 Bft) S-SO 155 0 min 0 W/m 4,1 C 6,4 C 1,2 km/h (1 Bft)
12.04.2008 23:42 6,5 C 85 % 1005,5 hPa 0,0 l/m 5,4 km/h (2 Bft) S-SO 160 0 min 0 W/m 4,2 C 6,5 C 5,4 km/h (2 Bft)
12.04.2008 23:47 6,6 C 86 % 1005,5 hPa 0,0 l/m 5,4 km/h (2 Bft) S-SW 195 0 min 0 W/m 4,4 C 6,6 C 5,4 km/h (2 Bft)
12.04.2008 23:52 6,6 C 85 % 1005,5 hPa 0,0 l/m 3,0 km/h (1 Bft) S 190 0 min 0 W/m 4,3 C 6,6 C 3,0 km/h (1 Bft)
12.04.2008 23:58 6,7 C 85 % 1005,5 hPa 0,0 l/m 5,4 km/h (2 Bft) S 185 0 min 0 W/m 4,4 C 6,7 C 5,4 km/h (2 Bft)
_ Min-Zeit 03:22 15:12 00:03 - 00:03 - - - - 03:22 08:07 00:03
Minimum _ 2,2 C 54 % 999,5 hPa - 0,0 km/h (0 Bft) - - - - 1,0 C -3,0 C 0,0 km/h (0 Bft)
_ Max-Zeit 15:03 05:48 18:23 00:03 13:37 - - 00:03 00:03 11:13 19:23 13:37
Maximum _ 13,8 C 96 % 1005,5 hPa 0,0 l/m 41,4 km/h
W-SW (6 Bft)
- - 0 min 0 W/m 7,5 C 8,7 C 41,4 km/h
W-SW (6 Bft)
Durchschnitt _ 7,8 C 80 % 1002,2 hPa #0,0 l/m 15,0 km/h (3 Bft) W-SW - #0 min. 0 W/m 4,2 C 3,5 C 15,0 km/h (3 Bft)
copyright by Holger Just